createdAt,value
2023-05-12T00:02:16.335Z,97705.00
2023-05-12T00:06:18.379Z,97708.47
2023-05-12T00:10:21.004Z,97710.16
2023-05-12T00:14:23.346Z,97702.13
2023-05-12T00:18:26.094Z,97703.91
2023-05-12T00:22:28.101Z,97706.53
2023-05-12T00:26:30.120Z,97712.53
2023-05-12T00:30:32.146Z,97707.38
2023-05-12T00:34:34.248Z,97703.34
2023-05-12T00:38:37.335Z,97705.22
2023-05-12T00:42:39.390Z,97698.28
2023-05-12T00:46:41.754Z,97703.53
2023-05-12T00:50:44.208Z,97696.66
2023-05-12T00:54:47.265Z,97697.59
2023-05-12T00:58:49.367Z,97693.19
2023-05-12T01:02:52.600Z,97699.19
2023-05-12T01:07:12.604Z,97694.88
2023-05-12T01:11:14.927Z,97702.13
2023-05-12T01:15:18.371Z,97702.22
2023-05-12T01:19:38.431Z,97701.91
2023-05-12T01:23:46.627Z,97707.84
2023-05-12T01:27:49.263Z,97696.84
2023-05-12T01:31:51.751Z,97697.81
2023-05-12T01:35:53.926Z,97701.28
2023-05-12T01:39:56.031Z,97696.16
2023-05-12T01:43:58.058Z,97698.78
2023-05-12T01:48:00.880Z,97696.28
2023-05-12T01:52:03.448Z,97706.16
2023-05-12T01:56:06.965Z,97703.94
2023-05-12T02:00:10.956Z,97702.31
2023-05-12T02:04:16.130Z,97707.63
2023-05-12T02:08:21.503Z,97700.91
2023-05-12T02:12:24.190Z,97704.44
2023-05-12T02:16:26.700Z,97706.31
2023-05-12T02:20:29.668Z,97710.78
2023-05-12T02:24:31.648Z,97709.16
2023-05-12T02:28:33.756Z,97717.09
2023-05-12T02:32:35.959Z,97723.38
2023-05-12T02:36:40.831Z,97739.00
2023-05-12T02:40:42.995Z,97743.22
2023-05-12T02:44:46.230Z,97738.72
2023-05-12T02:48:48.410Z,97747.22
2023-05-12T02:52:50.938Z,97746.19
2023-05-12T02:56:53.300Z,97753.25
2023-05-12T03:01:03.349Z,97754.78
2023-05-12T03:05:11.949Z,97757.19
2023-05-12T03:09:14.219Z,97752.63
2023-05-12T03:13:16.288Z,97754.19
2023-05-12T03:17:18.372Z,97758.50
2023-05-12T03:21:20.620Z,97765.69
2023-05-12T03:25:22.666Z,97765.69
2023-05-12T03:29:24.903Z,97767.25
2023-05-12T03:33:26.977Z,97769.63
2023-05-12T03:37:29.092Z,97768.69
2023-05-12T03:41:31.245Z,97761.44
2023-05-12T03:45:33.372Z,97761.19
2023-05-12T03:49:35.385Z,97759.44
2023-05-12T03:53:37.438Z,97764.78
2023-05-12T03:57:39.523Z,97763.06
2023-05-12T04:01:41.694Z,97766.31
2023-05-12T04:05:43.782Z,97766.31
2023-05-12T04:09:46.571Z,97779.50
2023-05-12T04:13:48.646Z,97773.81
2023-05-12T04:17:51.071Z,97779.81
2023-05-12T04:21:53.627Z,97780.81
2023-05-12T04:25:56.420Z,97787.38
2023-05-12T04:29:58.557Z,97788.22
2023-05-12T04:34:01.144Z,97790.47
2023-05-12T04:38:04.444Z,97789.41
2023-05-12T04:42:07.054Z,97795.25
2023-05-12T04:46:10.419Z,97795.25
2023-05-12T04:50:13.624Z,97801.31
2023-05-12T04:54:16.128Z,97809.03
2023-05-12T04:58:18.285Z,97805.25
2023-05-12T05:02:21.064Z,97819.81
2023-05-12T05:06:24.034Z,97817.19
2023-05-12T05:10:26.296Z,97818.91
2023-05-12T05:14:28.441Z,97821.47
2023-05-12T05:18:31.950Z,97824.31
2023-05-12T05:22:34.069Z,97834.03
2023-05-12T05:26:36.357Z,97843.78
2023-05-12T05:30:38.931Z,97842.69
2023-05-12T05:34:41.832Z,97851.84
2023-05-12T05:38:43.962Z,97849.50
2023-05-12T05:42:46.052Z,97846.31
2023-05-12T05:46:48.360Z,97854.97
2023-05-12T05:50:51.964Z,97851.75
2023-05-12T05:54:54.614Z,97857.41
2023-05-12T05:59:02.450Z,97857.03
2023-05-12T06:03:05.033Z,97860.47
2023-05-12T06:07:07.203Z,97872.59
2023-05-12T06:11:09.219Z,97873.69
2023-05-12T06:15:11.663Z,97883.91
2023-05-12T06:19:13.813Z,97889.66
2023-05-12T06:23:16.301Z,97900.63
2023-05-12T06:27:18.528Z,97897.88
2023-05-12T06:31:22.217Z,97899.81
2023-05-12T06:35:24.258Z,97903.28
2023-05-12T06:39:26.274Z,97900.97
2023-05-12T06:43:28.287Z,97894.53
2023-05-12T06:47:30.583Z,97907.69
2023-05-12T06:51:33.945Z,97901.50
2023-05-12T06:55:36.022Z,97904.31
2023-05-12T06:59:38.088Z,97901.19
2023-05-12T07:03:40.302Z,97901.31
2023-05-12T07:07:42.351Z,97902.41
2023-05-12T07:11:44.677Z,97915.22
2023-05-12T07:15:46.787Z,97923.41
2023-05-12T07:19:48.880Z,97920.25
2023-05-12T07:23:50.888Z,97920.97
2023-05-12T07:27:53.054Z,97916.25
2023-05-12T07:31:55.322Z,97920.22
2023-05-12T07:35:57.429Z,97926.66
2023-05-12T07:39:59.538Z,97927.31
2023-05-12T07:44:02.246Z,97927.69
2023-05-12T07:48:04.475Z,97929.09
2023-05-12T07:52:06.623Z,97928.72
2023-05-12T07:56:08.669Z,97923.72
2023-05-12T08:00:11.405Z,97923.50
2023-05-12T08:04:16.530Z,97928.69
2023-05-12T08:08:18.625Z,97940.91
2023-05-12T08:12:20.879Z,97922.16
2023-05-12T08:16:23.202Z,97929.19
2023-05-12T08:20:25.237Z,97931.03
2023-05-12T08:24:27.295Z,97926.31
2023-05-12T08:28:29.425Z,97938.94
2023-05-12T08:32:32.114Z,97933.50
2023-05-12T08:36:34.185Z,97933.84
2023-05-12T08:40:54.379Z,97935.81
2023-05-12T08:44:59.149Z,97933.72
2023-05-12T08:49:03.892Z,97943.91
2023-05-12T08:53:10.482Z,97939.94
2023-05-12T08:57:12.534Z,97924.31
2023-05-12T09:01:16.249Z,97933.94
2023-05-12T09:05:18.970Z,97931.09
2023-05-12T09:09:21.668Z,97919.56
2023-05-12T09:13:40.312Z,97931.78
2023-05-12T09:17:42.407Z,97922.81
2023-05-12T09:21:44.436Z,97927.97
2023-05-12T09:25:47.119Z,97930.22
2023-05-12T09:29:59.325Z,97926.75
2023-05-12T09:34:07.868Z,97933.84
2023-05-12T09:38:12.259Z,97933.22
2023-05-12T09:42:15.762Z,97936.16
2023-05-12T09:46:17.919Z,97928.44
2023-05-12T09:50:20.744Z,97944.84
2023-05-12T09:54:30.925Z,97930.72
2023-05-12T09:58:33.985Z,97927.28
2023-05-12T10:02:39.744Z,97921.97
2023-05-12T10:06:43.061Z,97931.66
2023-05-12T10:10:48.579Z,97932.13
2023-05-12T10:14:51.719Z,97928.56
2023-05-12T10:18:54.853Z,97938.16
2023-05-12T10:22:59.068Z,97932.34
2023-05-12T10:27:03.222Z,97944.25
2023-05-12T10:31:07.709Z,97945.50
2023-05-12T10:35:11.086Z,97951.66
2023-05-12T10:39:15.451Z,97930.00
2023-05-12T10:43:28.749Z,97934.59
2023-05-12T10:47:37.707Z,97931.97
2023-05-12T10:51:43.165Z,97927.59
2023-05-12T10:55:50.090Z,97935.94
2023-05-12T10:59:56.300Z,97928.63
2023-05-12T11:04:11.175Z,97922.94
2023-05-12T11:08:14.229Z,97931.91
2023-05-12T11:12:16.990Z,97936.09
2023-05-12T11:16:20.665Z,97941.84
2023-05-12T11:20:28.077Z,97940.91
2023-05-12T11:24:31.671Z,97943.50
2023-05-12T11:28:40.764Z,97937.03
2023-05-12T11:32:43.789Z,97940.72
2023-05-12T11:36:46.526Z,97953.94
2023-05-12T11:40:48.573Z,97947.97
2023-05-12T11:44:50.736Z,97942.84
2023-05-12T11:49:00.182Z,97945.03
2023-05-12T11:53:02.213Z,97946.47
2023-05-12T11:57:05.013Z,97952.81
2023-05-12T12:01:11.737Z,97948.25
2023-05-12T12:05:18.451Z,97952.22
2023-05-12T12:09:30.845Z,97959.44
2023-05-12T12:13:32.943Z,97951.25
2023-05-12T12:17:35.014Z,97958.75
2023-05-12T12:21:37.048Z,97967.03
2023-05-12T12:25:39.082Z,97969.88
2023-05-12T12:29:41.169Z,97966.78
2023-05-12T12:33:43.375Z,97958.28
2023-05-12T12:37:51.827Z,97968.75
2023-05-12T12:41:54.130Z,97971.56
2023-05-12T12:45:56.261Z,97973.34
2023-05-12T12:49:58.756Z,97967.22
2023-05-12T12:54:00.824Z,97964.69
2023-05-12T12:58:02.815Z,97965.31
2023-05-12T13:02:04.990Z,97968.13
2023-05-12T13:06:07.183Z,97972.19
2023-05-12T13:10:10.016Z,97962.44
2023-05-12T13:14:12.083Z,97961.56
2023-05-12T13:18:14.113Z,97960.44
2023-05-12T13:22:16.243Z,97959.31
2023-05-12T13:26:18.256Z,97959.44
2023-05-12T13:30:20.633Z,97969.59
2023-05-12T13:34:22.656Z,97963.78
2023-05-12T13:38:24.747Z,97962.34
2023-05-12T13:42:26.848Z,97967.91
2023-05-12T13:46:28.972Z,97955.00
2023-05-12T13:50:33.304Z,97966.50
2023-05-12T13:54:35.648Z,97959.59
2023-05-12T13:58:37.725Z,97968.56
2023-05-12T14:02:39.865Z,97960.00
2023-05-12T14:06:42.262Z,97960.47
2023-05-12T14:10:44.997Z,97953.66
2023-05-12T14:14:49.906Z,97958.53
2023-05-12T14:18:52.071Z,97948.63
2023-05-12T14:22:54.199Z,97965.28
2023-05-12T14:26:56.409Z,97959.34
2023-05-12T14:30:58.473Z,97960.44
2023-05-12T14:35:00.888Z,97958.78
2023-05-12T14:39:03.085Z,97957.44
2023-05-12T14:43:05.250Z,97953.72
2023-05-12T14:47:09.098Z,97953.78
2023-05-12T14:51:11.258Z,97955.63
2023-05-12T14:55:13.851Z,97958.75
2023-05-12T14:59:15.875Z,97960.00
2023-05-12T15:03:19.564Z,97960.22
2023-05-12T15:07:22.502Z,97957.81
2023-05-12T15:11:24.650Z,97960.94
2023-05-12T15:15:26.769Z,97972.56
2023-05-12T15:19:28.868Z,97987.03
2023-05-12T15:23:31.025Z,97980.38
2023-05-12T15:27:33.271Z,97985.41
2023-05-12T15:31:35.733Z,97986.16
2023-05-12T15:35:39.388Z,97992.09
2023-05-12T15:39:41.522Z,97989.47
2023-05-12T15:43:43.611Z,97988.97
2023-05-12T15:47:45.762Z,98001.88
2023-05-12T15:51:47.891Z,98014.34
2023-05-12T15:55:59.086Z,98018.75
2023-05-12T16:00:02.233Z,98002.06
2023-05-12T16:04:14.978Z,98018.91
2023-05-12T16:08:17.284Z,98015.13
2023-05-12T16:12:19.252Z,98016.88
2023-05-12T16:16:21.340Z,98013.31
2023-05-12T16:20:23.506Z,98011.22
2023-05-12T16:24:28.343Z,98010.22
2023-05-12T16:28:31.948Z,98013.72
2023-05-12T16:32:34.012Z,98012.97
2023-05-12T16:36:36.243Z,98010.75
2023-05-12T16:40:38.241Z,98017.16
2023-05-12T16:44:40.284Z,98019.75
2023-05-12T16:48:42.353Z,98020.28
2023-05-12T16:52:44.377Z,98033.41
2023-05-12T16:56:47.452Z,98024.66
2023-05-12T17:00:49.649Z,98024.75
2023-05-12T17:04:51.656Z,98034.84
2023-05-12T17:08:53.732Z,98035.09
2023-05-12T17:12:55.781Z,98031.63
2023-05-12T17:16:57.878Z,98035.09
2023-05-12T17:20:59.906Z,98048.56
2023-05-12T17:25:01.877Z,98051.78
2023-05-12T17:29:04.017Z,98056.81
2023-05-12T17:33:07.598Z,98033.69
2023-05-12T17:37:09.651Z,98040.19
2023-05-12T17:41:11.793Z,98038.19
2023-05-12T17:45:14.358Z,98037.78
2023-05-12T17:49:16.486Z,98036.00
2023-05-12T17:53:18.793Z,98033.88
2023-05-12T17:57:20.970Z,98045.78
2023-05-12T18:01:23.049Z,98053.28
2023-05-12T18:05:25.131Z,98054.28
2023-05-12T18:09:28.589Z,98058.88
2023-05-12T18:13:30.970Z,98054.81
2023-05-12T18:17:33.137Z,98055.84
2023-05-12T18:21:35.791Z,98054.41
2023-05-12T18:25:37.910Z,98059.59
2023-05-12T18:29:39.970Z,98072.97
2023-05-12T18:33:41.975Z,98074.41
2023-05-12T18:37:44.282Z,98077.19
2023-05-12T18:41:46.352Z,98075.59
2023-05-12T18:45:48.936Z,98084.03
2023-05-12T18:49:50.960Z,98091.44
2023-05-12T18:53:53.154Z,98091.16
2023-05-12T18:57:55.200Z,98085.63
2023-05-12T19:01:57.249Z,98098.13
2023-05-12T19:05:59.256Z,98100.88
2023-05-12T19:10:01.230Z,98102.97
2023-05-12T19:14:03.253Z,98109.00
2023-05-12T19:18:05.448Z,98118.69
2023-05-12T19:22:07.660Z,98124.38
2023-05-12T19:26:10.927Z,98125.38
2023-05-12T19:30:14.236Z,98140.41
2023-05-12T19:34:16.611Z,98133.72
2023-05-12T19:38:19.340Z,98139.81
2023-05-12T19:42:21.504Z,98143.41
2023-05-12T19:46:23.737Z,98150.34
2023-05-12T19:50:26.394Z,98156.03
2023-05-12T19:54:28.402Z,98163.94
2023-05-12T19:58:30.527Z,98159.22
2023-05-12T20:02:32.787Z,98173.00
2023-05-12T20:06:35.058Z,98162.31
2023-05-12T20:10:37.464Z,98162.78
2023-05-12T20:14:39.543Z,98156.88
2023-05-12T20:18:41.636Z,98156.34
2023-05-12T20:22:44.267Z,98158.41
2023-05-12T20:26:46.325Z,98165.47
2023-05-12T20:30:48.355Z,98172.78
2023-05-12T20:34:50.385Z,98169.84
2023-05-12T20:38:52.451Z,98170.84
2023-05-12T20:42:54.459Z,98175.00
2023-05-12T20:46:56.537Z,98169.25
2023-05-12T20:50:58.741Z,98167.25
2023-05-12T20:55:00.954Z,98161.38
2023-05-12T20:59:02.964Z,98159.63
2023-05-12T21:03:05.980Z,98160.97
2023-05-12T21:07:08.013Z,98172.59
2023-05-12T21:11:17.561Z,98173.81
2023-05-12T21:15:19.751Z,98175.00
2023-05-12T21:19:21.795Z,98183.19
2023-05-12T21:23:23.864Z,98191.03
2023-05-12T21:27:25.873Z,98184.91
2023-05-12T21:31:28.025Z,98184.88
2023-05-12T21:35:30.153Z,98183.19
2023-05-12T21:39:32.171Z,98190.53
2023-05-12T21:43:34.255Z,98194.06
2023-05-12T21:47:36.380Z,98177.25
2023-05-12T21:51:38.415Z,98183.19
2023-05-12T21:55:41.064Z,98193.94
2023-05-12T21:59:43.092Z,98192.47
2023-05-12T22:03:45.388Z,98198.78
2023-05-12T22:07:48.173Z,98198.09
2023-05-12T22:11:50.488Z,98202.78
2023-05-12T22:15:53.383Z,98198.50
2023-05-12T22:19:55.649Z,98207.34
2023-05-12T22:23:57.849Z,98205.69
2023-05-12T22:27:59.857Z,98216.47
2023-05-12T22:32:01.894Z,98211.59
2023-05-12T22:36:04.097Z,98219.97
2023-05-12T22:40:07.091Z,98220.16
2023-05-12T22:44:09.117Z,98217.53
2023-05-12T22:48:11.139Z,98229.94
2023-05-12T22:52:13.152Z,98221.03
2023-05-12T22:56:15.215Z,98221.81
2023-05-12T23:00:17.598Z,98220.72
2023-05-12T23:04:19.745Z,98216.31
2023-05-12T23:08:22.035Z,98224.00
2023-05-12T23:12:24.050Z,98223.84
2023-05-12T23:16:26.633Z,98236.66
2023-05-12T23:20:28.817Z,98239.13
2023-05-12T23:24:31.161Z,98226.25
2023-05-12T23:28:33.240Z,98236.34
2023-05-12T23:32:35.641Z,98224.69
2023-05-12T23:36:37.955Z,98221.31
2023-05-12T23:40:40.019Z,98214.69
2023-05-12T23:44:42.089Z,98210.56
2023-05-12T23:48:44.100Z,98197.59
2023-05-12T23:52:46.289Z,98207.34
2023-05-12T23:56:48.363Z,98205.13
